createdAt,value
2023-05-14T00:00:50.994Z,92.76
2023-05-14T00:01:50.984Z,93.37
2023-05-14T00:02:50.989Z,92.55
2023-05-14T00:03:50.984Z,93.31
2023-05-14T00:04:50.906Z,93.62
2023-05-14T00:05:50.839Z,94.17
2023-05-14T00:06:50.868Z,94.48
2023-05-14T00:07:50.858Z,94.89
2023-05-14T00:08:50.827Z,95.44
2023-05-14T00:09:50.793Z,96.26
2023-05-14T00:10:50.838Z,95.95
2023-05-14T00:11:50.773Z,95.29
2023-05-14T00:12:50.788Z,94.17
2023-05-14T00:13:50.773Z,95.09
2023-05-14T00:14:50.801Z,94.37
2023-05-14T00:15:50.835Z,95.03
2023-05-14T00:16:50.743Z,96.36
2023-05-14T00:17:50.747Z,96.71
2023-05-14T00:18:50.778Z,94.93
2023-05-14T00:19:50.720Z,95.75
2023-05-14T00:20:50.703Z,94.52
2023-05-14T00:21:50.673Z,94.21
2023-05-14T00:22:50.682Z,94.01
2023-05-14T00:23:50.655Z,93.60
2023-05-14T00:24:50.656Z,94.32
2023-05-14T00:25:50.657Z,94.52
2023-05-14T00:26:50.654Z,95.23
2023-05-14T00:27:50.600Z,95.38
2023-05-14T00:28:50.613Z,95.23
2023-05-14T00:29:50.604Z,94.11
2023-05-14T00:30:50.610Z,94.62
2023-05-14T00:31:50.870Z,94.48
2023-05-14T00:32:50.663Z,93.76
2023-05-14T00:33:50.541Z,93.15
2023-05-14T00:34:50.546Z,93.05
2023-05-14T00:35:50.531Z,92.94
2023-05-14T00:36:50.532Z,93.70
2023-05-14T00:37:50.526Z,93.66
2023-05-14T00:38:50.516Z,92.07
2023-05-14T00:39:50.479Z,91.76
2023-05-14T00:40:50.487Z,91.86
2023-05-14T00:41:50.459Z,93.60
2023-05-14T00:42:50.478Z,93.25
2023-05-14T00:43:50.458Z,93.35
2023-05-14T00:44:50.465Z,93.66
2023-05-14T00:45:50.420Z,93.15
2023-05-14T00:46:50.460Z,93.15
2023-05-14T00:47:50.507Z,94.27
2023-05-14T00:48:50.411Z,93.96
2023-05-14T00:49:50.384Z,94.58
2023-05-14T00:50:50.381Z,94.93
2023-05-14T00:51:50.349Z,93.40
2023-05-14T00:52:50.362Z,94.17
2023-05-14T00:53:50.328Z,93.96
2023-05-14T00:54:50.358Z,92.68
2023-05-14T00:55:50.345Z,92.27
2023-05-14T00:56:50.335Z,92.94
2023-05-14T00:57:50.287Z,92.17
2023-05-14T00:58:50.304Z,92.17
2023-05-14T00:59:50.260Z,92.88
2023-05-14T01:00:50.322Z,93.80
2023-05-14T01:01:50.259Z,93.60
2023-05-14T01:02:50.301Z,93.50
2023-05-14T01:03:50.333Z,92.99
2023-05-14T01:04:50.226Z,92.17
2023-05-14T01:05:50.199Z,92.47
2023-05-14T01:06:50.206Z,93.86
2023-05-14T01:07:50.193Z,93.15
2023-05-14T01:08:50.183Z,93.35
2023-05-14T01:09:50.173Z,93.91
2023-05-14T01:10:50.166Z,95.59
2023-05-14T01:11:50.144Z,95.94
2023-05-14T01:12:50.146Z,96.66
2023-05-14T01:13:50.132Z,97.47
2023-05-14T01:14:50.119Z,97.27
2023-05-14T01:15:50.083Z,97.78
2023-05-14T01:16:50.161Z,97.27
2023-05-14T01:17:50.097Z,97.57
2023-05-14T01:18:50.134Z,97.67
2023-05-14T01:19:50.072Z,97.57
2023-05-14T01:20:50.051Z,96.51
2023-05-14T01:21:50.025Z,94.26
2023-05-14T01:22:50.059Z,94.20
2023-05-14T01:23:50.004Z,93.99
2023-05-14T01:24:50.008Z,94.10
2023-05-14T01:25:50.033Z,95.59
2023-05-14T01:26:49.996Z,94.97
2023-05-14T01:27:49.958Z,95.63
2023-05-14T01:28:49.967Z,96.49
2023-05-14T01:29:49.984Z,97.11
2023-05-14T01:30:49.920Z,96.80
2023-05-14T01:31:49.968Z,96.08
2023-05-14T01:32:49.998Z,96.70
2023-05-14T01:33:49.892Z,96.91
2023-05-14T01:34:49.904Z,95.06
2023-05-14T01:35:49.880Z,94.55
2023-05-14T01:36:49.894Z,95.17
2023-05-14T01:37:49.869Z,95.32
2023-05-14T01:38:49.893Z,94.85
2023-05-14T01:39:49.843Z,95.22
2023-05-14T01:40:49.850Z,94.81
2023-05-14T01:41:49.809Z,95.26
2023-05-14T01:42:49.872Z,95.06
2023-05-14T01:43:49.828Z,95.47
2023-05-14T01:44:49.803Z,95.37
2023-05-14T01:45:49.798Z,94.24
2023-05-14T01:46:49.782Z,94.29
2023-05-14T01:47:49.792Z,94.49
2023-05-14T01:48:49.751Z,94.90
2023-05-14T01:49:49.736Z,95.41
2023-05-14T01:50:49.737Z,95.72
2023-05-14T01:51:49.695Z,95.92
2023-05-14T01:52:49.706Z,96.23
2023-05-14T01:53:49.672Z,96.33
2023-05-14T01:54:49.696Z,96.44
2023-05-14T01:55:49.847Z,96.23
2023-05-14T01:56:49.666Z,95.72
2023-05-14T01:57:49.654Z,95.31
2023-05-14T01:58:49.646Z,95.41
2023-05-14T01:59:49.607Z,96.17
2023-05-14T02:00:49.637Z,97.20
2023-05-14T02:01:49.661Z,97.55
2023-05-14T02:02:49.631Z,97.81
2023-05-14T02:03:49.576Z,97.50
2023-05-14T02:04:49.581Z,97.71
2023-05-14T02:05:49.544Z,96.28
2023-05-14T02:06:49.563Z,95.25
2023-05-14T02:07:49.549Z,95.76
2023-05-14T02:08:49.539Z,95.56
2023-05-14T02:09:49.502Z,94.95
2023-05-14T02:10:49.510Z,95.76
2023-05-14T02:11:49.485Z,95.41
2023-05-14T02:12:49.490Z,95.00
2023-05-14T02:13:49.472Z,94.29
2023-05-14T02:14:49.499Z,93.93
2023-05-14T02:15:49.467Z,93.67
2023-05-14T02:16:49.480Z,94.04
2023-05-14T02:17:49.449Z,93.77
2023-05-14T02:18:49.473Z,94.29
2023-05-14T02:19:49.421Z,94.90
2023-05-14T02:20:49.405Z,94.59
2023-05-14T02:21:49.380Z,93.57
2023-05-14T02:22:49.414Z,93.77
2023-05-14T02:23:49.372Z,94.18
2023-05-14T02:24:49.359Z,93.67
2023-05-14T02:25:49.376Z,93.77
2023-05-14T02:26:49.362Z,93.77
2023-05-14T02:27:49.314Z,93.26
2023-05-14T02:28:49.318Z,92.81
2023-05-14T02:29:49.289Z,92.19
2023-05-14T02:30:49.298Z,92.30
2023-05-14T02:31:49.452Z,93.10
2023-05-14T02:32:49.404Z,94.78
2023-05-14T02:33:49.239Z,96.78
2023-05-14T02:34:49.279Z,98.11
2023-05-14T02:35:49.235Z,99.38
2023-05-14T02:36:49.228Z,98.72
2023-05-14T02:37:49.221Z,99.49
2023-05-14T02:38:49.213Z,98.05
2023-05-14T02:39:49.230Z,96.88
2023-05-14T02:40:49.190Z,96.41
2023-05-14T02:41:49.167Z,96.78
2023-05-14T02:42:49.173Z,97.39
2023-05-14T02:43:49.170Z,97.65
2023-05-14T02:44:49.163Z,96.12
2023-05-14T02:45:49.113Z,96.22
2023-05-14T02:46:49.157Z,95.86
2023-05-14T02:47:49.144Z,96.37
2023-05-14T02:48:49.120Z,96.67
2023-05-14T02:49:49.282Z,96.78
2023-05-14T02:50:49.082Z,96.88
2023-05-14T02:51:49.080Z,96.06
2023-05-14T02:52:49.074Z,95.95
2023-05-14T02:53:49.031Z,96.16
2023-05-14T02:54:49.041Z,96.41
2023-05-14T02:55:49.043Z,97.23
2023-05-14T02:56:49.016Z,97.54
2023-05-14T02:57:48.996Z,96.72
2023-05-14T02:58:49.001Z,95.75
2023-05-14T02:59:48.979Z,94.77
2023-05-14T03:00:48.991Z,96.06
2023-05-14T03:01:48.960Z,94.73
2023-05-14T03:02:49.022Z,95.03
2023-05-14T03:03:48.932Z,95.75
2023-05-14T03:06:16.590Z,95.14
2023-05-14T03:06:21.892Z,96.20
2023-05-14T03:07:21.900Z,96.62
2023-05-14T03:08:21.860Z,96.31
2023-05-14T03:09:21.872Z,95.07
2023-05-14T03:10:22.036Z,95.28
2023-05-14T03:11:21.855Z,95.49
2023-05-14T03:12:21.804Z,96.20
2023-05-14T03:13:21.830Z,95.39
2023-05-14T03:14:21.810Z,95.59
2023-05-14T03:15:21.792Z,96.31
2023-05-14T03:16:21.814Z,96.51
2023-05-14T03:17:21.815Z,96.31
2023-05-14T03:18:21.734Z,96.10
2023-05-14T03:19:21.773Z,96.10
2023-05-14T03:20:21.957Z,96.41
2023-05-14T03:21:21.738Z,96.31
2023-05-14T03:22:21.693Z,96.10
2023-05-14T03:23:21.727Z,94.87
2023-05-14T03:24:21.683Z,95.69
2023-05-14T03:25:21.722Z,94.87
2023-05-14T03:26:21.692Z,95.28
2023-05-14T03:27:21.671Z,95.64
2023-05-14T03:28:21.632Z,95.90
2023-05-14T03:29:21.645Z,96.04
2023-05-14T03:30:22.043Z,95.74
2023-05-14T03:31:21.757Z,95.53
2023-05-14T03:32:21.629Z,95.32
2023-05-14T03:33:21.613Z,95.53
2023-05-14T03:34:21.584Z,95.74
2023-05-14T03:35:21.576Z,95.53
2023-05-14T03:36:21.546Z,95.32
2023-05-14T03:37:21.589Z,95.53
2023-05-14T03:38:21.522Z,95.32
2023-05-14T03:39:21.547Z,95.23
2023-05-14T03:40:21.969Z,95.23
2023-05-14T03:41:21.526Z,95.32
2023-05-14T03:42:21.486Z,95.53
2023-05-14T03:43:21.516Z,95.12
2023-05-14T03:44:21.457Z,93.59
2023-05-14T03:45:21.476Z,93.48
2023-05-14T03:46:21.437Z,93.48
2023-05-14T03:47:21.455Z,93.93
2023-05-14T03:48:21.525Z,95.02
2023-05-14T03:49:21.458Z,95.32
2023-05-14T03:50:21.568Z,96.45
2023-05-14T03:51:21.407Z,97.53
2023-05-14T03:52:21.373Z,97.67
2023-05-14T03:53:21.428Z,98.39
2023-05-14T03:54:21.351Z,99.52
2023-05-14T03:55:21.403Z,99.11
2023-05-14T03:56:21.367Z,98.91
2023-05-14T03:57:21.389Z,98.70
2023-05-14T03:58:21.332Z,98.14
2023-05-14T03:59:21.320Z,97.63
2023-05-14T04:00:21.607Z,97.63
2023-05-14T04:01:21.345Z,97.94
2023-05-14T04:02:21.298Z,97.12
2023-05-14T04:03:21.402Z,96.91
2023-05-14T04:04:21.316Z,96.09
2023-05-14T04:05:21.232Z,96.35
2023-05-14T04:06:21.260Z,95.53
2023-05-14T04:07:21.235Z,95.53
2023-05-14T04:08:21.234Z,94.51
2023-05-14T04:09:21.191Z,94.55
2023-05-14T04:10:21.251Z,95.84
2023-05-14T04:11:21.171Z,95.64
2023-05-14T04:12:21.179Z,96.04
2023-05-14T04:13:21.195Z,96.25
2023-05-14T04:14:21.164Z,96.97
2023-05-14T04:15:21.137Z,97.99
2023-05-14T04:16:21.262Z,97.94
2023-05-14T04:17:21.107Z,98.25
2023-05-14T04:18:21.113Z,98.35
2023-05-14T04:19:21.121Z,97.63
2023-05-14T04:20:21.153Z,97.48
2023-05-14T04:21:21.057Z,97.58
2023-05-14T04:22:21.083Z,97.58
2023-05-14T04:23:21.036Z,97.07
2023-05-14T04:24:21.068Z,96.25
2023-05-14T04:25:21.030Z,95.84
2023-05-14T04:26:21.032Z,96.72
2023-05-14T04:27:21.024Z,95.39
2023-05-14T04:28:21.020Z,95.07
2023-05-14T04:29:20.978Z,95.28
2023-05-14T04:30:21.166Z,97.03
2023-05-14T04:31:21.009Z,97.23
2023-05-14T04:32:21.014Z,95.79
2023-05-14T04:33:20.928Z,97.03
2023-05-14T04:34:20.974Z,96.67
2023-05-14T04:35:23.355Z,96.88
2023-05-14T04:36:20.915Z,96.78
2023-05-14T04:37:20.928Z,96.67
2023-05-14T04:38:20.898Z,96.98
2023-05-14T04:39:20.866Z,95.95
2023-05-14T04:40:20.883Z,95.34
2023-05-14T04:41:20.853Z,95.28
2023-05-14T04:42:20.853Z,94.98
2023-05-14T04:43:20.858Z,96.26
2023-05-14T04:44:20.855Z,95.95
2023-05-14T04:45:20.801Z,96.26
2023-05-14T04:46:20.871Z,96.73
2023-05-14T04:47:20.804Z,97.08
2023-05-14T04:48:20.795Z,96.78
2023-05-14T04:49:20.801Z,96.83
2023-05-14T04:50:20.839Z,96.63
2023-05-14T04:51:20.729Z,96.32
2023-05-14T04:52:20.747Z,97.55
2023-05-14T04:53:20.716Z,97.14
2023-05-14T04:54:20.767Z,97.24
2023-05-14T04:55:20.726Z,96.94
2023-05-14T04:56:20.705Z,96.79
2023-05-14T04:57:20.668Z,96.58
2023-05-14T04:58:20.701Z,97.34
2023-05-14T04:59:20.647Z,97.55
2023-05-14T05:00:20.758Z,98.16
2023-05-14T05:01:20.698Z,98.27
2023-05-14T05:02:20.646Z,98.37
2023-05-14T05:03:20.762Z,98.99
2023-05-14T05:04:20.635Z,99.09
2023-05-14T05:05:20.588Z,98.99
2023-05-14T05:06:20.628Z,98.68
2023-05-14T05:07:20.580Z,98.12
2023-05-14T05:08:20.583Z,97.40
2023-05-14T05:09:20.580Z,97.61
2023-05-14T05:10:20.582Z,97.66
2023-05-14T05:11:20.529Z,96.14
2023-05-14T05:12:20.536Z,94.73
2023-05-14T05:13:20.534Z,91.98
2023-05-14T05:14:20.535Z,91.39
2023-05-14T05:15:20.489Z,87.47
2023-05-14T05:16:20.512Z,87.90
2023-05-14T05:17:20.526Z,85.61
2023-05-14T05:18:20.460Z,84.31
2023-05-14T05:19:26.557Z,82.10
2023-05-14T05:20:20.499Z,80.17
2023-05-14T05:21:20.426Z,78.34
2023-05-14T05:22:20.431Z,78.78
2023-05-14T05:23:20.400Z,79.43
2023-05-14T05:24:20.471Z,80.65
2023-05-14T05:25:20.410Z,79.09
2023-05-14T05:26:20.392Z,77.47
2023-05-14T05:27:20.360Z,77.67
2023-05-14T05:28:20.363Z,78.92
2023-05-14T05:29:20.350Z,79.74
2023-05-14T05:30:20.386Z,81.26
2023-05-14T05:31:20.380Z,80.78
2023-05-14T05:32:20.334Z,77.39
2023-05-14T05:33:20.298Z,76.34
2023-05-14T05:34:20.302Z,74.98
2023-05-14T05:35:20.264Z,74.44
2023-05-14T05:36:20.281Z,73.90
2023-05-14T05:37:20.274Z,72.96
2023-05-14T05:38:20.257Z,72.14
2023-05-14T05:39:20.224Z,71.64
2023-05-14T05:40:20.240Z,71.40
2023-05-14T05:41:20.201Z,71.13
2023-05-14T05:42:20.226Z,71.64
2023-05-14T05:43:20.201Z,72.04
2023-05-14T05:44:20.192Z,71.53
2023-05-14T05:45:20.178Z,71.20
2023-05-14T05:46:20.229Z,71.30
2023-05-14T05:47:20.150Z,72.92
2023-05-14T05:48:20.145Z,75.76
2023-05-14T05:49:20.142Z,73.49
2023-05-14T05:50:20.228Z,72.99
2023-05-14T05:51:20.086Z,71.03
2023-05-14T05:52:20.110Z,68.87
2023-05-14T05:53:20.085Z,67.79
2023-05-14T05:54:20.084Z,70.02
2023-05-14T05:55:20.086Z,72.34
2023-05-14T05:56:20.065Z,68.84
2023-05-14T05:57:20.032Z,69.98
2023-05-14T05:58:20.051Z,71.50
2023-05-14T05:59:20.008Z,72.04
2023-05-14T06:00:20.031Z,71.91
2023-05-14T06:01:20.010Z,71.13
2023-05-14T06:02:20.086Z,70.42
2023-05-14T06:03:20.008Z,70.93
2023-05-14T06:04:19.974Z,78.63
2023-05-14T06:05:20.032Z,74.48
2023-05-14T06:06:19.957Z,72.65
2023-05-14T06:07:19.941Z,71.53
2023-05-14T06:08:19.940Z,75.89
2023-05-14T06:09:19.895Z,77.21
2023-05-14T06:10:19.909Z,73.97
2023-05-14T06:11:19.878Z,74.27
2023-05-14T06:12:19.891Z,72.65
2023-05-14T06:13:19.886Z,73.09
2023-05-14T06:14:19.867Z,73.19
2023-05-14T06:15:19.856Z,73.43
2023-05-14T06:16:19.893Z,74.48
2023-05-14T06:17:19.852Z,75.93
2023-05-14T06:18:19.822Z,76.54
2023-05-14T06:19:19.934Z,77.29
2023-05-14T06:20:19.802Z,77.80
2023-05-14T06:21:19.836Z,78.44
2023-05-14T06:22:19.778Z,79.16
2023-05-14T06:23:19.748Z,83.42
2023-05-14T06:24:19.758Z,80.07
2023-05-14T06:25:19.746Z,80.17
2023-05-14T06:26:19.955Z,79.80
2023-05-14T06:27:19.705Z,80.11
2023-05-14T06:28:19.731Z,79.97
2023-05-14T06:29:19.690Z,81.59
2023-05-14T06:30:19.707Z,80.68
2023-05-14T06:31:19.719Z,81.19
2023-05-14T06:32:19.748Z,79.52
2023-05-14T06:33:20.630Z,79.22
2023-05-14T06:34:19.661Z,78.17
2023-05-14T06:35:19.626Z,79.90
2023-05-14T06:36:19.636Z,78.98
2023-05-14T06:37:19.648Z,80.36
2023-05-14T06:38:19.621Z,82.15
2023-05-14T06:39:19.571Z,77.99
2023-05-14T06:40:19.584Z,80.32
2023-05-14T06:41:19.563Z,78.16
2023-05-14T06:42:19.573Z,76.29
2023-05-14T06:43:19.649Z,80.35
2023-05-14T06:44:19.554Z,80.31
2023-05-14T06:45:19.531Z,75.76
2023-05-14T06:46:19.525Z,74.24
2023-05-14T06:47:19.488Z,76.87
2023-05-14T06:48:19.656Z,74.81
2023-05-14T06:49:19.497Z,74.77
2023-05-14T06:50:19.484Z,74.67
2023-05-14T06:51:19.462Z,77.30
2023-05-14T06:52:19.456Z,77.37
2023-05-14T06:53:19.429Z,76.66
2023-05-14T06:54:19.442Z,72.51
2023-05-14T06:55:19.432Z,71.64
2023-05-14T06:56:19.422Z,72.01
2023-05-14T06:57:19.380Z,73.22
2023-05-14T06:58:19.404Z,74.27
2023-05-14T06:59:19.367Z,74.88
2023-05-14T07:00:19.377Z,75.08
2023-05-14T07:01:19.385Z,74.07
2023-05-14T07:02:19.353Z,75.69
2023-05-14T07:03:19.319Z,80.01
2023-05-14T07:04:19.432Z,76.26
2023-05-14T07:05:19.298Z,79.80
2023-05-14T07:06:19.309Z,80.68
2023-05-14T07:07:19.309Z,74.91
2023-05-14T07:08:19.290Z,73.90
2023-05-14T07:09:19.248Z,77.24
2023-05-14T07:10:19.263Z,81.65
2023-05-14T07:11:19.275Z,79.22
2023-05-14T07:12:19.253Z,75.95
2023-05-14T07:13:19.223Z,74.10
2023-05-14T07:14:19.217Z,77.43
2023-05-14T07:15:19.199Z,72.55
2023-05-14T07:16:19.197Z,76.39
2023-05-14T07:17:19.213Z,75.34
2023-05-14T07:18:19.186Z,74.09
2023-05-14T07:19:19.252Z,69.65
2023-05-14T07:20:19.159Z,72.58
2023-05-14T07:21:19.158Z,73.75
2023-05-14T07:22:19.142Z,69.42
2023-05-14T07:23:20.046Z,69.52
2023-05-14T07:24:19.132Z,74.52
2023-05-14T07:25:19.098Z,71.60
2023-05-14T07:26:19.096Z,71.87
2023-05-14T07:27:19.064Z,69.72
2023-05-14T07:28:19.076Z,69.42
2023-05-14T07:29:19.032Z,69.59
2023-05-14T07:30:19.063Z,71.77
2023-05-14T07:31:19.077Z,73.35
2023-05-14T07:32:19.023Z,70.43
2023-05-14T07:33:19.005Z,70.09
2023-05-14T07:34:19.017Z,63.05
2023-05-14T07:35:18.970Z,71.09
2023-05-14T07:36:19.108Z,69.15
2023-05-14T07:37:18.973Z,70.56
2023-05-14T07:38:18.965Z,67.71
2023-05-14T07:39:18.925Z,69.12
2023-05-14T07:40:18.936Z,71.53
2023-05-14T07:41:18.909Z,65.97
2023-05-14T07:42:31.638Z,68.92
2023-05-14T07:43:18.902Z,66.67
2023-05-14T07:44:18.894Z,63.17
2023-05-14T07:45:18.852Z,69.46
2023-05-14T07:46:18.880Z,63.93
2023-05-14T07:47:18.866Z,62.33
2023-05-14T07:48:18.873Z,63.70
2023-05-14T07:49:18.882Z,64.91
2023-05-14T07:50:18.848Z,62.53
2023-05-14T07:51:18.852Z,68.92
2023-05-14T07:52:18.822Z,63.10
2023-05-14T07:53:18.781Z,72.24
2023-05-14T07:54:18.784Z,67.82
2023-05-14T07:55:18.773Z,66.48
2023-05-14T07:56:18.760Z,64.48
2023-05-14T07:57:18.734Z,64.68
2023-05-14T07:58:18.744Z,62.17
2023-05-14T07:59:18.707Z,62.07
2023-05-14T08:00:18.792Z,66.28
2023-05-14T08:01:18.721Z,64.25
2023-05-14T08:02:18.752Z,60.84
2023-05-14T08:03:18.785Z,63.04
2023-05-14T08:04:18.814Z,62.34
2023-05-14T08:05:18.653Z,60.06
2023-05-14T08:06:18.654Z,63.95
2023-05-14T08:07:18.642Z,65.65
2023-05-14T08:08:18.637Z,60.94
2023-05-14T08:09:18.610Z,59.94
2023-05-14T08:10:18.622Z,59.86
2023-05-14T08:11:18.661Z,66.15
2023-05-14T08:12:18.602Z,61.34
2023-05-14T08:13:18.633Z,61.54
2023-05-14T08:14:18.558Z,61.30
2023-05-14T08:15:18.559Z,62.20
2023-05-14T08:16:18.549Z,63.53
2023-05-14T08:17:18.563Z,64.71
2023-05-14T08:18:18.531Z,67.52
2023-05-14T08:19:18.649Z,63.10
2023-05-14T08:20:18.486Z,74.30
2023-05-14T08:21:18.496Z,69.19
2023-05-14T08:22:18.465Z,68.59
2023-05-14T08:23:18.537Z,67.52
2023-05-14T08:24:18.439Z,66.69
2023-05-14T08:25:18.466Z,64.45
2023-05-14T08:26:18.425Z,58.65
2023-05-14T08:27:18.435Z,59.55
2023-05-14T08:28:18.405Z,64.83
2023-05-14T08:29:18.417Z,60.12
2023-05-14T08:30:18.389Z,62.59
2023-05-14T08:31:18.483Z,66.43
2023-05-14T08:32:23.307Z,65.10
2023-05-14T08:33:18.374Z,68.36
2023-05-14T08:34:18.351Z,58.48
2023-05-14T08:35:18.352Z,60.65
2023-05-14T08:36:18.322Z,57.86
2023-05-14T08:37:18.335Z,55.66
2023-05-14T08:38:18.321Z,60.35
2023-05-14T08:39:18.318Z,57.26
2023-05-14T08:40:18.308Z,57.46
2023-05-14T08:41:18.286Z,59.65
2023-05-14T08:42:18.260Z,60.25
2023-05-14T08:43:18.310Z,62.21
2023-05-14T08:44:18.230Z,57.47
2023-05-14T08:45:18.254Z,56.57
2023-05-14T08:46:18.222Z,54.75
2023-05-14T08:47:18.231Z,54.75
2023-05-14T08:48:18.260Z,56.52
2023-05-14T08:49:18.226Z,51.82
2023-05-14T08:50:18.933Z,50.93
2023-05-14T08:51:18.188Z,54.53
2023-05-14T08:52:18.175Z,53.94
2023-05-14T08:53:18.165Z,55.20
2023-05-14T08:54:18.205Z,56.00
2023-05-14T08:55:18.156Z,51.70
2023-05-14T08:56:18.106Z,50.20
2023-05-14T08:57:18.112Z,53.98
2023-05-14T08:58:18.087Z,57.36
2023-05-14T08:59:18.094Z,50.40
2023-05-14T09:00:18.065Z,52.94
2023-05-14T09:01:18.101Z,51.54
2023-05-14T09:02:18.040Z,49.84
2023-05-14T09:03:18.072Z,49.21
2023-05-14T09:04:18.052Z,48.65
2023-05-14T09:05:18.057Z,52.19
2023-05-14T09:06:17.992Z,46.14
2023-05-14T09:07:18.034Z,50.58
2023-05-14T09:08:17.969Z,49.17
2023-05-14T09:09:17.993Z,52.12
2023-05-14T09:10:17.952Z,53.48
2023-05-14T09:11:17.988Z,54.84
2023-05-14T09:12:17.934Z,46.30
2023-05-14T09:13:17.960Z,44.32
2023-05-14T09:14:17.929Z,44.82
2023-05-14T09:15:17.930Z,48.65
2023-05-14T09:16:17.948Z,46.88
2023-05-14T09:17:17.925Z,50.56
2023-05-14T09:18:17.887Z,45.51
2023-05-14T09:19:17.989Z,49.79
2023-05-14T09:20:17.868Z,45.31
2023-05-14T09:21:17.882Z,47.47
2023-05-14T09:22:17.844Z,45.53
2023-05-14T09:23:17.848Z,48.88
2023-05-14T09:24:17.812Z,47.15
2023-05-14T09:25:17.872Z,48.43
2023-05-14T09:26:17.821Z,43.59
2023-05-14T09:27:17.807Z,43.02
2023-05-14T09:28:17.768Z,46.62
2023-05-14T09:29:17.783Z,44.96
2023-05-14T09:30:17.756Z,46.98
2023-05-14T09:31:17.871Z,47.77
2023-05-14T09:32:17.729Z,50.08
2023-05-14T09:33:17.755Z,48.37
2023-05-14T09:34:17.941Z,49.14
2023-05-14T09:35:18.054Z,51.77
2023-05-14T09:36:17.688Z,51.82
2023-05-14T09:37:17.728Z,48.01
2023-05-14T09:38:17.669Z,47.09
2023-05-14T09:39:17.693Z,45.19
2023-05-14T09:40:17.651Z,47.34
2023-05-14T09:41:17.659Z,49.05
2023-05-14T09:42:17.629Z,44.68
2023-05-14T09:43:17.653Z,46.06
2023-05-14T09:44:17.642Z,47.13
2023-05-14T09:45:17.621Z,49.49
2023-05-14T09:46:17.580Z,46.81
2023-05-14T09:47:17.634Z,48.09
2023-05-14T09:48:17.635Z,44.32
2023-05-14T09:49:17.609Z,46.09
2023-05-14T09:50:17.576Z,43.43
2023-05-14T09:51:17.552Z,46.29
2023-05-14T09:52:17.546Z,43.43
2023-05-14T09:53:17.541Z,43.51
2023-05-14T09:54:17.556Z,45.18
2023-05-14T09:55:17.545Z,44.29
2023-05-14T09:56:17.488Z,43.33
2023-05-14T09:57:17.489Z,40.78
2023-05-14T09:58:17.457Z,42.56
2023-05-14T09:59:17.473Z,44.75
2023-05-14T10:00:17.438Z,40.90
2023-05-14T10:01:17.517Z,55.46
2023-05-14T10:02:17.408Z,49.24
2023-05-14T10:03:19.860Z,50.31
2023-05-14T10:04:17.421Z,50.46
2023-05-14T10:05:17.421Z,42.43
2023-05-14T10:06:17.375Z,42.90
2023-05-14T10:07:17.412Z,43.29
2023-05-14T10:08:17.356Z,41.53
2023-05-14T10:09:17.373Z,43.73
2023-05-14T10:10:17.348Z,43.32
2023-05-14T10:11:17.351Z,49.24
2023-05-14T10:12:17.332Z,47.65
2023-05-14T10:13:17.346Z,44.13
2023-05-14T10:14:17.291Z,50.04
2023-05-14T10:15:17.312Z,48.10
2023-05-14T10:16:17.271Z,49.42
2023-05-14T10:17:17.322Z,46.98
2023-05-14T10:18:17.277Z,50.60
2023-05-14T10:19:17.378Z,48.59
2023-05-14T10:20:17.228Z,46.75
2023-05-14T10:21:17.264Z,55.30
2023-05-14T10:22:17.205Z,45.67
2023-05-14T10:23:17.220Z,47.66
2023-05-14T10:24:17.202Z,56.56
2023-05-14T10:25:17.225Z,52.29
2023-05-14T10:26:17.167Z,52.62
2023-05-14T10:27:17.193Z,47.05
2023-05-14T10:28:17.142Z,45.79
2023-05-14T10:29:17.158Z,46.74
2023-05-14T10:30:17.132Z,46.58
2023-05-14T10:31:17.218Z,42.22
2023-05-14T10:32:17.133Z,45.45
2023-05-14T10:33:17.150Z,40.21
2023-05-14T10:34:17.113Z,40.21
2023-05-14T10:35:17.127Z,44.95
2023-05-14T10:36:17.078Z,43.94
2023-05-14T10:37:17.110Z,40.37
2023-05-14T10:38:17.096Z,38.57
2023-05-14T10:39:17.060Z,43.48
2023-05-14T10:40:17.020Z,38.43
2023-05-14T10:41:17.045Z,40.62
2023-05-14T10:42:17.006Z,39.95
2023-05-14T10:43:17.046Z,38.37
2023-05-14T10:44:16.990Z,42.99
2023-05-14T10:45:17.016Z,42.69
2023-05-14T10:46:17.006Z,37.39
2023-05-14T10:47:16.992Z,38.08
2023-05-14T10:48:17.006Z,32.78
2023-05-14T10:49:25.329Z,34.20
2023-05-14T10:50:16.926Z,40.50
2023-05-14T10:51:17.035Z,36.83
2023-05-14T10:52:16.912Z,35.45
2023-05-14T10:53:16.912Z,37.98
2023-05-14T10:54:16.888Z,38.59
2023-05-14T10:55:16.991Z,42.14
2023-05-14T10:56:16.866Z,44.50
2023-05-14T10:57:16.877Z,38.45
2023-05-14T10:58:16.838Z,41.08
2023-05-14T10:59:16.867Z,42.44
2023-05-14T11:00:16.830Z,37.60
2023-05-14T11:01:16.860Z,40.62
2023-05-14T11:02:16.841Z,36.40
2023-05-14T11:03:16.869Z,39.06
2023-05-14T11:04:16.855Z,37.78
2023-05-14T11:05:16.837Z,38.75
2023-05-14T11:06:16.799Z,37.49
2023-05-14T11:07:16.791Z,37.21
2023-05-14T11:08:16.749Z,37.92
2023-05-14T11:09:16.784Z,39.83
2023-05-14T11:10:16.797Z,40.78
2023-05-14T11:11:16.742Z,38.03
2023-05-14T11:12:16.718Z,36.24
2023-05-14T11:13:16.742Z,40.80
2023-05-14T11:14:16.696Z,38.90
2023-05-14T11:15:16.745Z,39.56
2023-05-14T11:16:23.190Z,41.02
2023-05-14T11:17:16.745Z,37.34
2023-05-14T11:18:16.701Z,38.73
2023-05-14T11:19:16.811Z,35.94
2023-05-14T11:20:16.664Z,39.17
2023-05-14T11:21:16.674Z,43.88
2023-05-14T11:22:16.610Z,37.55
2023-05-14T11:23:16.616Z,37.34
2023-05-14T11:24:16.599Z,47.92
2023-05-14T11:25:16.629Z,42.74
2023-05-14T11:26:16.804Z,44.51
2023-05-14T11:27:16.590Z,40.07
2023-05-14T11:28:16.560Z,43.51
2023-05-14T11:29:16.562Z,39.12
2023-05-14T11:30:16.572Z,39.92
2023-05-14T11:31:16.586Z,34.41
2023-05-14T11:32:16.516Z,35.60
2023-05-14T11:33:16.552Z,37.57
2023-05-14T11:34:16.505Z,40.58
2023-05-14T11:35:16.506Z,41.77
2023-05-14T11:36:16.486Z,35.47
2023-05-14T11:37:16.528Z,40.21
2023-05-14T11:38:16.455Z,44.04
2023-05-14T11:39:16.462Z,45.20
2023-05-14T11:40:16.543Z,43.51
2023-05-14T11:41:16.457Z,40.43
2023-05-14T11:42:16.419Z,42.50
2023-05-14T11:43:16.452Z,34.12
2023-05-14T11:44:16.403Z,35.41
2023-05-14T11:45:16.403Z,43.25
2023-05-14T11:46:16.399Z,40.94
2023-05-14T11:47:16.394Z,47.31
2023-05-14T11:48:16.357Z,46.07
2023-05-14T11:49:16.532Z,42.15
2023-05-14T11:50:16.393Z,46.86
2023-05-14T11:51:16.349Z,45.68
2023-05-14T11:52:16.354Z,44.04
2023-05-14T11:53:16.334Z,42.77
2023-05-14T11:54:16.304Z,43.46
2023-05-14T11:55:16.345Z,44.04
2023-05-14T11:56:16.313Z,43.94
2023-05-14T11:57:16.360Z,48.44
2023-05-14T11:58:16.248Z,48.27
2023-05-14T11:59:16.262Z,49.42
2023-05-14T12:00:16.283Z,40.66
2023-05-14T12:01:16.372Z,38.29
2023-05-14T12:02:16.232Z,42.92
2023-05-14T12:03:16.378Z,42.13
2023-05-14T12:04:16.214Z,36.01
2023-05-14T12:05:16.214Z,36.86
2023-05-14T12:06:16.151Z,36.93
2023-05-14T12:07:16.186Z,47.87
2023-05-14T12:08:16.146Z,38.62
2023-05-14T12:09:16.146Z,45.32
2023-05-14T12:10:16.125Z,41.52
2023-05-14T12:11:16.130Z,40.01
2023-05-14T12:12:16.106Z,37.13
2023-05-14T12:13:16.370Z,40.88
2023-05-14T12:14:16.070Z,40.07
2023-05-14T12:15:16.103Z,38.39
2023-05-14T12:16:16.157Z,43.02
2023-05-14T12:17:16.067Z,40.23
2023-05-14T12:18:24.141Z,37.05
2023-05-14T12:19:16.264Z,39.40
2023-05-14T12:20:16.006Z,36.82
2023-05-14T12:21:16.034Z,36.90
2023-05-14T12:22:15.988Z,39.36
2023-05-14T12:23:15.996Z,36.50
2023-05-14T12:24:15.986Z,41.25
2023-05-14T12:25:16.032Z,38.39
2023-05-14T12:26:15.948Z,36.14
2023-05-14T12:27:15.957Z,36.87
2023-05-14T12:28:15.950Z,37.34
2023-05-14T12:29:15.925Z,37.96
2023-05-14T12:30:21.656Z,44.41
2023-05-14T12:31:15.983Z,44.27
2023-05-14T12:32:15.914Z,39.10
2023-05-14T12:33:15.883Z,41.36
2023-05-14T12:34:15.892Z,38.86
2023-05-14T12:35:15.864Z,40.13
2023-05-14T12:36:21.635Z,38.55
2023-05-14T12:37:15.855Z,40.11
2023-05-14T12:38:15.863Z,39.50
2023-05-14T12:39:15.828Z,36.14
2023-05-14T12:40:15.839Z,35.72
2023-05-14T12:41:15.819Z,36.64
2023-05-14T12:42:15.821Z,39.81
2023-05-14T12:43:15.789Z,41.67
2023-05-14T12:44:15.889Z,47.59
2023-05-14T12:45:15.761Z,49.35
2023-05-14T12:46:15.763Z,43.29
2023-05-14T12:47:15.855Z,39.24
2023-05-14T12:48:15.764Z,42.38
2023-05-14T12:49:15.732Z,37.94
2023-05-14T12:50:15.722Z,41.49
2023-05-14T12:51:15.708Z,47.62
2023-05-14T12:53:15.693Z,36.16
2023-05-14T12:54:15.749Z,38.33